ROU1606 CYUL-KFLL
Flight info
| Callsign | ROU1606 |
|---|---|
| Flight time | N/A |
| Altitude | 36000 |
| Route | FAWNS DCT BUGSY DCT PONCT Q437 CRPLR DCT KOOKI Q161 CHIEZ Y291 MAJIK CUUDA3 |
| Aircraft | A319/M-SDE3FGHIRWY/LB1 |
Departure
| Time | 2026-05-05 21:58 |
|---|---|
| Airport | Montreal / Pierre Elliott Trudeau International Airport (CYUL) |
Arrival
| Time | N/A |
|---|---|
| Airport | Fort Lauderdale Hollywood International Airport (KFLL) |
| Time | Latitude | Longitude | Altitude | Speed | Heading |
|---|---|---|---|---|---|
| 2026-05-05 21:26 | 45.45882 | -73.74544 | 105 ft | 0 kts | 178° |
| 2026-05-05 21:27 | 45.45883 | -73.74544 | 105 ft | 0 kts | 178° |
| 2026-05-05 21:39 | 45.45884 | -73.74544 | 95 ft | 0 kts | 178° |
| 2026-05-05 21:48 | 45.45892 | -73.74544 | 105 ft | 4 kts | 178° |
| 2026-05-05 21:49 | 45.45920 | -73.74546 | 104 ft | 4 kts | 178° |
| 2026-05-05 21:49 | 45.45941 | -73.74549 | 104 ft | 4 kts | 149° |
| 2026-05-05 21:49 | 45.45957 | -73.74576 | 103 ft | 4 kts | 96° |
| 2026-05-05 21:49 | 45.45957 | -73.74596 | 105 ft | 3 kts | 78° |
| 2026-05-05 21:51 | 45.45957 | -73.74593 | 105 ft | 1 kts | 78° |
| 2026-05-05 21:51 | 45.45962 | -73.74560 | 104 ft | 8 kts | 77° |
| 2026-05-05 21:52 | 45.45978 | -73.74343 | 102 ft | 14 kts | 114° |
| 2026-05-05 21:52 | 45.46011 | -73.74224 | 102 ft | 14 kts | 44° |
| 2026-05-05 21:52 | 45.46081 | -73.74131 | 103 ft | 13 kts | 42° |
| 2026-05-05 21:53 | 45.46144 | -73.74050 | 105 ft | 11 kts | 42° |
| 2026-05-05 21:53 | 45.46219 | -73.73952 | 104 ft | 19 kts | 42° |
| 2026-05-05 21:53 | 45.46321 | -73.73820 | 106 ft | 19 kts | 42° |
| 2026-05-05 21:53 | 45.46415 | -73.73695 | 108 ft | 18 kts | 43° |
| 2026-05-05 21:54 | 45.46502 | -73.73581 | 109 ft | 16 kts | 43° |
| 2026-05-05 21:54 | 45.46583 | -73.73475 | 111 ft | 15 kts | 43° |
| 2026-05-05 21:54 | 45.46672 | -73.73359 | 112 ft | 19 kts | 42° |
| 2026-05-05 21:54 | 45.46765 | -73.73237 | 112 ft | 17 kts | 43° |
| 2026-05-05 21:55 | 45.46859 | -73.73113 | 115 ft | 23 kts | 43° |
| 2026-05-05 21:55 | 45.47006 | -73.72920 | 117 ft | 31 kts | 42° |
| 2026-05-05 21:55 | 45.47160 | -73.72720 | 117 ft | 29 kts | 43° |
| 2026-05-05 21:55 | 45.47306 | -73.72527 | 118 ft | 28 kts | 43° |
| 2026-05-05 21:56 | 45.47448 | -73.72341 | 119 ft | 27 kts | 43° |
| 2026-05-05 21:56 | 45.47582 | -73.72164 | 118 ft | 26 kts | 43° |
| 2026-05-05 21:56 | 45.47713 | -73.71992 | 122 ft | 25 kts | 43° |
| 2026-05-05 21:56 | 45.47814 | -73.71830 | 121 ft | 15 kts | 83° |
| 2026-05-05 21:57 | 45.47757 | -73.71719 | 120 ft | 14 kts | 134° |
| 2026-05-05 21:57 | 45.47681 | -73.71651 | 121 ft | 13 kts | 185° |
| 2026-05-05 21:57 | 45.47596 | -73.71745 | 124 ft | 30 kts | 223° |
| 2026-05-05 21:57 | 45.47264 | -73.72184 | 117 ft | 98 kts | 223° |
| 2026-05-05 21:58 | 45.46624 | -73.73025 | 114 ft | 149 kts | 223° |
| 2026-05-05 21:58 | 45.45823 | -73.74051 | 545 ft | 155 kts | 227° |
| 2026-05-05 21:58 | 45.45037 | -73.75091 | 1165 ft | 155 kts | 225° |
| 2026-05-05 21:58 | 45.44249 | -73.76170 | 1738 ft | 160 kts | 225° |
| 2026-05-05 21:59 | 45.43437 | -73.77275 | 2297 ft | 164 kts | 226° |
| 2026-05-05 21:59 | 45.42574 | -73.78425 | 2669 ft | 179 kts | 225° |
| 2026-05-05 21:59 | 45.41570 | -73.79684 | 2926 ft | 201 kts | 224° |
| 2026-05-05 21:59 | 45.40477 | -73.81053 | 3441 ft | 214 kts | 225° |
| 2026-05-05 22:00 | 45.39358 | -73.82430 | 4310 ft | 210 kts | 225° |
| 2026-05-05 22:00 | 45.38227 | -73.83725 | 5171 ft | 209 kts | 221° |
| 2026-05-05 22:00 | 45.36863 | -73.84761 | 5641 ft | 234 kts | 213° |
| 2026-05-05 22:00 | 45.35352 | -73.85771 | 6340 ft | 243 kts | 212° |
| 2026-05-05 22:01 | 45.33804 | -73.86773 | 7177 ft | 245 kts | 212° |
| 2026-05-05 22:01 | 45.32243 | -73.87772 | 8058 ft | 245 kts | 212° |
| 2026-05-05 22:01 | 45.30690 | -73.88766 | 8942 ft | 246 kts | 212° |
| 2026-05-05 22:01 | 45.29131 | -73.89768 | 9801 ft | 247 kts | 212° |
| 2026-05-05 22:02 | 45.27564 | -73.90781 | 10562 ft | 248 kts | 212° |
| 2026-05-05 22:02 | 45.25990 | -73.91806 | 11298 ft | 251 kts | 212° |
| 2026-05-05 22:02 | 45.24913 | -73.92508 | 11811 ft | 252 kts | 212° |
| 2026-05-05 22:02 | 45.23306 | -73.93553 | 12563 ft | 255 kts | 212° |
| 2026-05-05 22:03 | 45.21687 | -73.94607 | 13299 ft | 258 kts | 212° |
| 2026-05-05 22:03 | 45.20048 | -73.95665 | 13972 ft | 259 kts | 212° |
| 2026-05-05 22:03 | 45.18387 | -73.96729 | 14588 ft | 263 kts | 212° |
| 2026-05-05 22:03 | 45.16715 | -73.97812 | 15220 ft | 266 kts | 212° |
| 2026-05-05 22:04 | 45.15027 | -73.98910 | 15860 ft | 268 kts | 212° |
| 2026-05-05 22:04 | 45.13323 | -74.00017 | 16481 ft | 271 kts | 212° |
| 2026-05-05 22:04 | 45.11604 | -74.01132 | 17105 ft | 273 kts | 211° |
| 2026-05-05 22:04 | 45.10506 | -74.01842 | 17501 ft | 275 kts | 211° |